Time;durP1;ratioP1;P1;durP2;ratioP2;P2;SDS_P1;SDS_P2;PMS_P1;PMS_P2;Temp;Humidity;BMP_temperature;BMP_pressure;BME280_temperature;BME280_humidity;BME280_pressure;Samples;Min_cycle;Max_cycle;Signal;HPM_P1;HPM_P2
2023/08/29 00:04:33;;;;;;;7.38;4.40;;;;;;;;;;10338410;28;20082;-60
2023/08/29 00:09:31;;;;;;;7.55;4.00;;;;;;;;;;10335639;28;20075;-60
2023/08/29 00:14:29;;;;;;;6.18;4.55;;;;;;;;;;10341151;28;20098;-60
2023/08/29 00:19:29;;;;;;;9.65;4.20;;;;;;;;;;10340212;28;20182;-60
2023/08/29 00:24:27;;;;;;;6.32;4.53;;;;;;;;;;10338652;28;20076;-60
2023/08/29 00:29:26;;;;;;;5.25;4.72;;;;;;;;;;10342732;28;20458;-60
2023/08/29 00:34:24;;;;;;;5.63;4.03;;;;;;;;;;10340125;28;20075;-60
2023/08/29 00:39:23;;;;;;;7.00;4.28;;;;;;;;;;10341731;28;20102;-60
2023/08/29 00:44:22;;;;;;;6.07;3.95;;;;;;;;;;10320144;28;20080;-61
2023/08/29 00:49:22;;;;;;;11.57;4.32;;;;;;;;;;10334255;28;20048;-60
2023/08/29 00:54:21;;;;;;;7.15;4.68;;;;;;;;;;10336282;28;20088;-61
2023/08/29 00:59:21;;;;;;;8.30;4.35;;;;;;;;;;10339512;28;20068;-61
2023/08/29 01:04:20;;;;;;;8.27;4.50;;;;;;;;;;10339885;28;20084;-61
2023/08/29 01:09:19;;;;;;;4.95;4.45;;;;;;;;;;10321428;28;20092;-61
2023/08/29 01:14:22;;;;;;;8.55;4.72;;;;;;;;;;10339337;28;20080;-60
2023/08/29 01:19:22;;;;;;;7.75;4.75;;;;;;;;;;10340300;28;20528;-61
2023/08/29 01:24:27;;;;;;;8.13;4.60;;;;;;;;;;10340793;28;20095;-60
2023/08/29 01:29:27;;;;;;;5.60;4.32;;;;;;;;;;10341406;28;20067;-60
2023/08/29 01:34:27;;;;;;;4.95;4.45;;;;;;;;;;10338916;28;20067;-60
2023/08/29 01:39:25;;;;;;;8.82;4.78;;;;;;;;;;10319990;28;20082;-60
2023/08/29 01:44:23;;;;;;;9.68;4.90;;;;;;;;;;10337051;28;20072;-61
2023/08/29 01:49:23;;;;;;;6.90;4.65;;;;;;;;;;10338285;28;20076;-60
2023/08/29 01:54:21;;;;;;;8.57;5.10;;;;;;;;;;10340274;28;20072;-59
2023/08/29 01:59:20;;;;;;;7.03;4.65;;;;;;;;;;10336628;28;20083;-60
2023/08/29 02:04:18;;;;;;;4.90;4.40;;;;;;;;;;10318423;28;20076;-59
2023/08/29 02:09:17;;;;;;;9.25;5.03;;;;;;;;;;10341453;28;20532;-60
2023/08/29 02:14:16;;;;;;;4.85;4.00;;;;;;;;;;10328191;28;20076;-59
2023/08/29 02:19:14;;;;;;;8.38;4.47;;;;;;;;;;10329347;28;20496;-60
2023/08/29 02:24:14;;;;;;;4.90;4.20;;;;;;;;;;10347543;28;20084;-59
2023/08/29 02:29:13;;;;;;;6.95;4.88;;;;;;;;;;10347653;28;20068;-61
2023/08/29 02:34:12;;;;;;;4.45;4.03;;;;;;;;;;10329076;28;20481;-61
2023/08/29 02:39:11;;;;;;;9.30;4.97;;;;;;;;;;10325712;28;20460;-61
2023/08/29 02:44:09;;;;;;;6.78;4.70;;;;;;;;;;10325690;28;20083;-61
2023/08/29 02:49:10;;;;;;;7.07;4.57;;;;;;;;;;10326126;28;20071;-61
2023/08/29 02:54:08;;;;;;;8.98;4.05;;;;;;;;;;10323623;28;20574;-61
2023/08/29 02:59:07;;;;;;;6.85;4.57;;;;;;;;;;10326399;28;20072;-61
2023/08/29 03:04:05;;;;;;;9.93;5.20;;;;;;;;;;10326963;28;20072;-61
2023/08/29 03:09:07;;;;;;;11.85;4.93;;;;;;;;;;10345212;28;20105;-61
2023/08/29 03:14:05;;;;;;;11.63;4.57;;;;;;;;;;10324906;28;20083;-59
2023/08/29 03:19:04;;;;;;;5.45;4.95;;;;;;;;;;10325201;28;20072;-60
2023/08/29 03:24:02;;;;;;;7.65;5.05;;;;;;;;;;10328720;28;20544;-61
2023/08/29 03:29:02;;;;;;;6.03;4.68;;;;;;;;;;10326188;28;20103;-60
2023/08/29 03:34:02;;;;;;;12.02;4.70;;;;;;;;;;10320418;28;20087;-60
2023/08/29 03:39:02;;;;;;;6.60;4.70;;;;;;;;;;10312093;28;20470;-62
2023/08/29 03:44:03;;;;;;;11.52;5.57;;;;;;;;;;10339665;28;20086;-61
2023/08/29 03:49:01;;;;;;;6.93;4.65;;;;;;;;;;10319796;28;20075;-62
2023/08/29 03:53:59;;;;;;;6.15;4.95;;;;;;;;;;10341298;28;20086;-61
2023/08/29 03:59:01;;;;;;;9.95;4.82;;;;;;;;;;10320948;28;20081;-59
2023/08/29 04:04:02;;;;;;;10.48;4.57;;;;;;;;;;10320338;28;20071;-61
2023/08/29 04:09:02;;;;;;;5.07;4.57;;;;;;;;;;10319959;28;20103;-61
2023/08/29 04:14:01;;;;;;;5.60;5.10;;;;;;;;;;10339843;28;20084;-61
2023/08/29 04:19:01;;;;;;;4.28;3.88;;;;;;;;;;10339093;28;20064;-62
2023/08/29 04:23:59;;;;;;;6.60;4.88;;;;;;;;;;10338666;28;20084;-61
2023/08/29 04:28:58;;;;;;;7.72;4.85;;;;;;;;;;10336454;28;20071;-62
2023/08/29 04:33:56;;;;;;;8.38;4.93;;;;;;;;;;10340462;28;20075;-60
2023/08/29 04:38:55;;;;;;;5.88;5.00;;;;;;;;;;10319306;28;20079;-60
2023/08/29 04:43:54;;;;;;;7.60;4.60;;;;;;;;;;10335530;28;20087;-60
2023/08/29 04:48:53;;;;;;;5.78;4.78;;;;;;;;;;10317560;28;20490;-60
2023/08/29 04:53:51;;;;;;;8.63;5.15;;;;;;;;;;10338253;28;20103;-60
2023/08/29 04:58:51;;;;;;;16.10;5.90;;;;;;;;;;10338930;28;20547;-61
2023/08/29 05:03:49;;;;;;;6.68;4.90;;;;;;;;;;10318597;28;20040;-60
2023/08/29 05:08:47;;;;;;;7.03;5.22;;;;;;;;;;10322098;28;20083;-61
2023/08/29 05:13:46;;;;;;;6.88;5.05;;;;;;;;;;10324010;28;20075;-65
2023/08/29 05:18:46;;;;;;;7.03;5.28;;;;;;;;;;10319772;28;20076;-64
2023/08/29 05:23:44;;;;;;;7.97;4.60;;;;;;;;;;10320170;28;20516;-60
2023/08/29 05:28:42;;;;;;;7.40;5.03;;;;;;;;;;10341434;28;20496;-59
2023/08/29 05:33:41;;;;;;;6.97;4.68;;;;;;;;;;10337330;28;20079;-62
2023/08/29 05:38:40;;;;;;;8.15;4.40;;;;;;;;;;10343010;28;20072;-60
2023/08/29 05:43:39;;;;;;;6.25;4.65;;;;;;;;;;10340378;28;20072;-61
2023/08/29 05:48:37;;;;;;;6.18;4.90;;;;;;;;;;10334943;28;20086;-63
2023/08/29 05:53:35;;;;;;;11.02;5.47;;;;;;;;;;10342605;28;20102;-64
2023/08/29 05:58:35;;;;;;;8.25;4.97;;;;;;;;;;10343150;28;20127;-61
2023/08/29 06:03:34;;;;;;;10.38;4.57;;;;;;;;;;10342313;28;20063;-63
2023/08/29 06:08:33;;;;;;;5.95;4.50;;;;;;;;;;10338564;28;20083;-61
2023/08/29 06:13:31;;;;;;;8.57;4.85;;;;;;;;;;10340042;28;20077;-59
2023/08/29 06:18:32;;;;;;;11.10;4.50;;;;;;;;;;10344276;28;20515;-61
2023/08/29 06:23:31;;;;;;;9.65;4.78;;;;;;;;;;10340533;28;20076;-61
2023/08/29 06:28:29;;;;;;;11.13;5.13;;;;;;;;;;10334200;28;20079;-60
2023/08/29 06:33:27;;;;;;;7.07;5.07;;;;;;;;;;10334703;28;20076;-60
2023/08/29 06:38:27;;;;;;;7.43;5.00;;;;;;;;;;10334455;28;20084;-60
2023/08/29 06:43:26;;;;;;;9.40;4.95;;;;;;;;;;10333872;28;20098;-61
2023/08/29 06:48:24;;;;;;;9.18;4.97;;;;;;;;;;10329451;28;20079;-60
2023/08/29 06:53:25;;;;;;;8.93;4.80;;;;;;;;;;10335068;28;20076;-60
2023/08/29 06:58:25;;;;;;;5.57;4.07;;;;;;;;;;10345748;28;20072;-60
2023/08/29 07:03:23;;;;;;;9.85;5.40;;;;;;;;;;10346096;28;20205;-60
2023/08/29 07:08:22;;;;;;;11.02;4.65;;;;;;;;;;10349334;28;20063;-60
2023/08/29 07:13:20;;;;;;;7.90;4.95;;;;;;;;;;10347665;28;20084;-61
2023/08/29 07:18:20;;;;;;;7.55;4.55;;;;;;;;;;10342571;28;20080;-61
2023/08/29 07:23:18;;;;;;;9.88;5.38;;;;;;;;;;10340924;28;20070;-60
2023/08/29 07:28:17;;;;;;;8.95;4.90;;;;;;;;;;10340293;28;20064;-60
2023/08/29 07:33:15;;;;;;;7.85;4.35;;;;;;;;;;10323349;28;20484;-60
2023/08/29 07:38:15;;;;;;;7.20;5.30;;;;;;;;;;10335785;28;20095;-60
2023/08/29 07:43:13;;;;;;;7.85;5.57;;;;;;;;;;10342846;28;20067;-60
2023/08/29 07:48:12;;;;;;;10.82;5.95;;;;;;;;;;10345106;28;20127;-60
2023/08/29 07:53:10;;;;;;;9.75;4.78;;;;;;;;;;10344464;28;20071;-60
2023/08/29 07:58:09;;;;;;;5.35;4.50;;;;;;;;;;10323545;28;20086;-61
2023/08/29 08:03:08;;;;;;;5.88;5.35;;;;;;;;;;10342171;28;20086;-61
2023/08/29 08:08:06;;;;;;;8.68;4.30;;;;;;;;;;10340024;28;20102;-63
2023/08/29 08:13:05;;;;;;;6.95;5.25;;;;;;;;;;10346896;28;20074;-62
2023/08/29 08:18:08;;;;;;;10.98;4.88;;;;;;;;;;10344180;28;20056;-60
2023/08/29 08:23:06;;;;;;;6.55;5.63;;;;;;;;;;10343046;28;20078;-61
2023/08/29 08:28:06;;;;;;;5.22;4.63;;;;;;;;;;10346584;28;20548;-60
2023/08/29 08:33:06;;;;;;;9.55;5.85;;;;;;;;;;10343964;28;20067;-63
2023/08/29 08:38:07;;;;;;;7.47;5.13;;;;;;;;;;10341750;28;20494;-61
2023/08/29 08:43:06;;;;;;;8.32;5.43;;;;;;;;;;10343688;28;20056;-61
2023/08/29 08:48:06;;;;;;;6.80;5.13;;;;;;;;;;10338800;28;20072;-60
2023/08/29 08:53:05;;;;;;;6.50;5.40;;;;;;;;;;10337775;28;20083;-61
2023/08/29 08:58:03;;;;;;;8.80;5.47;;;;;;;;;;10338971;28;20080;-60
2023/08/29 09:03:02;;;;;;;4.90;4.47;;;;;;;;;;10340203;28;20445;-61
2023/08/29 09:08:02;;;;;;;12.15;5.32;;;;;;;;;;10340130;28;20102;-61
2023/08/29 09:13:01;;;;;;;6.43;5.03;;;;;;;;;;10344285;28;20084;-59
2023/08/29 09:17:59;;;;;;;6.45;4.38;;;;;;;;;;10338536;28;20071;-61
2023/08/29 09:22:58;;;;;;;8.10;5.32;;;;;;;;;;10343345;28;20416;-61
2023/08/29 09:27:58;;;;;;;9.13;4.47;;;;;;;;;;10347398;28;20071;-60
2023/08/29 09:32:56;;;;;;;4.80;4.28;;;;;;;;;;10339608;28;20066;-61
2023/08/29 09:37:55;;;;;;;10.77;4.18;;;;;;;;;;10332640;28;20080;-60
2023/08/29 09:42:54;;;;;;;14.38;4.95;;;;;;;;;;10334924;28;20091;-59
2023/08/29 09:47:54;;;;;;;10.07;4.57;;;;;;;;;;10332543;28;20060;-60
2023/08/29 09:52:53;;;;;;;6.15;4.28;;;;;;;;;;10340284;28;20508;-60
2023/08/29 09:57:52;;;;;;;6.97;4.72;;;;;;;;;;10335982;28;20067;-61
2023/08/29 10:02:52;;;;;;;7.93;4.38;;;;;;;;;;10335840;28;20489;-61
2023/08/29 10:07:52;;;;;;;6.03;4.95;;;;;;;;;;10337989;28;20505;-62
2023/08/29 10:12:51;;;;;;;7.80;4.47;;;;;;;;;;10337159;28;20083;-61
2023/08/29 10:17:51;;;;;;;59.10;9.02;;;;;;;;;;10335712;28;20098;-61
2023/08/29 10:22:49;;;;;;;4.82;4.32;;;;;;;;;;10328949;28;20091;-60
2023/08/29 10:27:50;;;;;;;5.70;4.32;;;;;;;;;;10332635;28;20084;-62
2023/08/29 10:32:49;;;;;;;14.65;5.22;;;;;;;;;;10343878;28;20602;-61
2023/08/29 10:37:50;;;;;;;6.10;4.15;;;;;;;;;;10343859;28;20178;-60
2023/08/29 10:42:51;;;;;;;9.10;4.38;;;;;;;;;;10340211;28;20071;-61
2023/08/29 10:47:51;;;;;;;6.60;4.00;;;;;;;;;;10351642;28;20063;-60
2023/08/29 10:52:56;;;;;;;7.53;5.25;;;;;;;;;;10345860;28;20079;-61
2023/08/29 10:57:58;;;;;;;8.07;4.25;;;;;;;;;;10345190;28;20102;-60
2023/08/29 11:02:57;;;;;;;5.57;3.85;;;;;;;;;;10346977;28;20079;-60
2023/08/29 11:08:10;;;;;;;6.50;4.30;;;;;;;;;;10339607;28;20075;-60
2023/08/29 11:13:11;;;;;;;4.25;3.95;;;;;;;;;;10340617;28;20078;-60
2023/08/29 11:18:20;;;;;;;8.40;4.00;;;;;;;;;;10343175;28;20071;-61
2023/08/29 11:23:20;;;;;;;5.72;3.47;;;;;;;;;;10346793;28;20079;-61
2023/08/29 11:28:20;;;;;;;12.07;4.60;;;;;;;;;;10343611;28;20095;-60
2023/08/29 11:33:21;;;;;;;7.55;3.60;;;;;;;;;;10334211;28;20091;-59
2023/08/29 11:38:26;;;;;;;5.15;4.13;;;;;;;;;;10332322;28;20560;-60
2023/08/29 11:43:27;;;;;;;7.82;3.70;;;;;;;;;;10332381;28;20076;-60
2023/08/29 11:48:46;;;;;;;16.65;4.68;;;;;;;;;;10337627;28;20087;-60
2023/08/29 11:53:45;;;;;;;5.85;3.70;;;;;;;;;;10339838;28;20472;-61
2023/08/29 11:58:45;;;;;;;4.97;3.55;;;;;;;;;;10340284;28;20086;-60
2023/08/29 12:03:44;;;;;;;6.03;4.35;;;;;;;;;;10335207;28;20082;-60
2023/08/29 12:08:44;;;;;;;7.65;4.20;;;;;;;;;;10340790;28;20072;-60
2023/08/29 12:13:58;;;;;;;3.67;3.20;;;;;;;;;;10334411;28;20071;-60
2023/08/29 12:19:06;;;;;;;6.60;3.40;;;;;;;;;;10338746;28;20163;-60
2023/08/29 12:24:15;;;;;;;4.22;3.42;;;;;;;;;;10337183;28;20105;-60
2023/08/29 12:29:15;;;;;;;4.85;3.60;;;;;;;;;;10336491;28;20075;-60
2023/08/29 12:34:15;;;;;;;6.78;3.55;;;;;;;;;;10337407;28;20072;-60
2023/08/29 12:39:14;;;;;;;7.10;3.00;;;;;;;;;;10339807;28;20464;-59
2023/08/29 12:44:14;;;;;;;4.40;3.30;;;;;;;;;;10337345;28;20087;-60
2023/08/29 12:49:13;;;;;;;6.97;3.78;;;;;;;;;;10337027;28;20115;-61
2023/08/29 12:54:13;;;;;;;7.38;3.28;;;;;;;;;;10345605;28;20068;-60
2023/08/29 12:59:11;;;;;;;4.50;3.47;;;;;;;;;;10342274;28;20083;-61
2023/08/29 13:04:09;;;;;;;7.82;3.00;;;;;;;;;;10339815;28;20086;-60
2023/08/29 13:09:08;;;;;;;7.63;3.63;;;;;;;;;;10342288;28;20457;-61
2023/08/29 13:14:16;;;;;;;9.15;3.38;;;;;;;;;;10337032;28;20121;-61
2023/08/29 13:19:17;;;;;;;7.22;3.15;;;;;;;;;;10332260;28;20090;-61
2023/08/29 13:24:18;;;;;;;3.95;3.28;;;;;;;;;;10337692;28;20078;-60
2023/08/29 13:29:17;;;;;;;4.18;3.05;;;;;;;;;;10334334;28;20064;-61
2023/08/29 13:34:16;;;;;;;4.40;2.95;;;;;;;;;;10337312;28;20064;-59
2023/08/29 13:39:14;;;;;;;5.38;3.35;;;;;;;;;;10337275;28;20064;-60
2023/08/29 13:44:12;;;;;;;7.93;3.45;;;;;;;;;;10342292;28;20486;-60
2023/08/29 13:49:12;;;;;;;4.25;2.95;;;;;;;;;;10339591;28;20083;-60
2023/08/29 13:54:10;;;;;;;4.53;3.05;;;;;;;;;;10336222;28;20075;-60
2023/08/29 13:59:08;;;;;;;7.70;2.85;;;;;;;;;;10342491;28;20075;-60
2023/08/29 14:04:07;;;;;;;5.38;2.88;;;;;;;;;;10341362;28;20071;-61
2023/08/29 14:09:06;;;;;;;6.80;3.10;;;;;;;;;;10348704;28;20067;-60
2023/08/29 14:14:04;;;;;;;4.88;3.05;;;;;;;;;;10344605;28;20080;-60
2023/08/29 14:19:03;;;;;;;6.13;2.90;;;;;;;;;;10345777;28;20083;-60
2023/08/29 14:24:02;;;;;;;7.78;3.50;;;;;;;;;;10345339;28;20095;-60
2023/08/29 14:29:02;;;;;;;4.10;2.65;;;;;;;;;;10348636;28;20101;-60
2023/08/29 14:34:00;;;;;;;5.75;2.70;;;;;;;;;;10348669;28;20064;-61
2023/08/29 14:38:58;;;;;;;6.90;2.88;;;;;;;;;;10335317;28;20068;-60
2023/08/29 14:43:58;;;;;;;5.88;3.45;;;;;;;;;;10345428;28;20071;-62
2023/08/29 14:48:58;;;;;;;5.03;2.85;;;;;;;;;;10341620;28;20068;-61
2023/08/29 14:54:02;;;;;;;9.88;3.47;;;;;;;;;;10351594;28;20071;-61
2023/08/29 14:59:00;;;;;;;4.85;2.88;;;;;;;;;;10345766;28;20079;-62
2023/08/29 15:04:00;;;;;;;5.40;3.15;;;;;;;;;;10342668;28;20067;-60
2023/08/29 15:08:58;;;;;;;11.57;3.97;;;;;;;;;;10339986;28;20068;-61
2023/08/29 15:13:56;;;;;;;5.90;3.50;;;;;;;;;;10347918;28;20063;-61
2023/08/29 15:18:55;;;;;;;5.95;3.13;;;;;;;;;;10342240;28;20086;-60
2023/08/29 15:23:54;;;;;;;4.57;3.10;;;;;;;;;;10341065;28;20095;-60
2023/08/29 15:28:54;;;;;;;6.60;3.07;;;;;;;;;;10340780;28;20083;-60
2023/08/29 15:33:53;;;;;;;6.20;3.90;;;;;;;;;;10341189;28;20067;-61
2023/08/29 15:38:51;;;;;;;7.22;3.22;;;;;;;;;;10341347;28;20509;-60
2023/08/29 15:43:51;;;;;;;7.50;3.67;;;;;;;;;;10341719;28;20639;-60
2023/08/29 15:48:49;;;;;;;4.28;3.50;;;;;;;;;;10339173;28;20083;-60
2023/08/29 15:53:47;;;;;;;8.25;3.75;;;;;;;;;;10338879;28;20067;-61
2023/08/29 15:58:45;;;;;;;10.45;3.75;;;;;;;;;;10338893;28;20087;-61
2023/08/29 16:03:45;;;;;;;9.98;4.13;;;;;;;;;;10338214;28;20528;-60
2023/08/29 16:08:43;;;;;;;7.72;3.78;;;;;;;;;;10335762;28;20070;-61
2023/08/29 16:13:41;;;;;;;9.18;3.72;;;;;;;;;;10338050;28;20060;-61
2023/08/29 16:18:40;;;;;;;7.57;4.20;;;;;;;;;;10338567;28;20098;-61
2023/08/29 16:23:39;;;;;;;6.38;4.40;;;;;;;;;;10339834;28;20083;-61
2023/08/29 16:28:38;;;;;;;9.52;5.20;;;;;;;;;;10343580;28;20067;-61
2023/08/29 16:33:37;;;;;;;10.32;4.65;;;;;;;;;;10339263;28;20075;-60
2023/08/29 16:38:35;;;;;;;5.43;4.53;;;;;;;;;;10340418;28;20528;-61
2023/08/29 16:43:34;;;;;;;10.35;5.18;;;;;;;;;;10335981;28;20072;-60
2023/08/29 16:48:33;;;;;;;15.68;5.43;;;;;;;;;;10338227;28;20072;-60
2023/08/29 16:53:31;;;;;;;7.40;5.22;;;;;;;;;;10336948;28;20078;-60
2023/08/29 16:58:29;;;;;;;9.88;5.13;;;;;;;;;;10341797;28;20078;-61
2023/08/29 17:03:29;;;;;;;6.80;3.90;;;;;;;;;;10344782;28;20074;-60
2023/08/29 17:08:27;;;;;;;7.80;4.38;;;;;;;;;;10337721;28;20088;-61
2023/08/29 17:13:25;;;;;;;12.40;5.90;;;;;;;;;;10339651;28;20075;-61
2023/08/29 17:18:23;;;;;;;8.98;6.05;;;;;;;;;;10336430;28;20072;-61
2023/08/29 17:23:23;;;;;;;7.20;5.30;;;;;;;;;;10338808;28;20121;-61
2023/08/29 17:28:22;;;;;;;10.88;5.30;;;;;;;;;;10336065;28;20087;-60
2023/08/29 17:33:20;;;;;;;8.18;5.28;;;;;;;;;;10341185;28;20075;-61
2023/08/29 17:38:19;;;;;;;5.97;5.38;;;;;;;;;;10339297;28;20064;-61
2023/08/29 17:43:18;;;;;;;6.47;5.82;;;;;;;;;;10340931;28;20064;-61
2023/08/29 17:48:17;;;;;;;6.43;5.05;;;;;;;;;;10339644;28;20071;-61
2023/08/29 17:53:16;;;;;;;11.30;6.53;;;;;;;;;;10335721;28;20079;-61
2023/08/29 17:58:15;;;;;;;7.95;6.07;;;;;;;;;;10344195;28;20513;-61
2023/08/29 18:03:14;;;;;;;10.00;5.90;;;;;;;;;;10333119;28;20079;-59
2023/08/29 18:08:13;;;;;;;13.15;6.15;;;;;;;;;;10331038;28;20067;-61
2023/08/29 18:13:11;;;;;;;9.02;6.18;;;;;;;;;;10339197;28;20087;-60
2023/08/29 18:18:20;;;;;;;12.98;6.68;;;;;;;;;;10334926;28;20059;-61
2023/08/29 18:23:19;;;;;;;11.10;6.50;;;;;;;;;;10331410;28;20063;-62
2023/08/29 18:28:17;;;;;;;13.15;6.53;;;;;;;;;;10336646;28;20071;-60
2023/08/29 18:33:15;;;;;;;8.77;6.85;;;;;;;;;;10333737;28;20060;-60
2023/08/29 18:38:15;;;;;;;6.57;5.97;;;;;;;;;;10334926;28;20068;-60
2023/08/29 18:43:14;;;;;;;6.15;5.13;;;;;;;;;;10318005;28;20087;-61
2023/08/29 18:48:14;;;;;;;7.68;5.65;;;;;;;;;;10336915;28;20135;-61
2023/08/29 18:53:12;;;;;;;6.57;5.10;;;;;;;;;;10347186;28;20083;-60
2023/08/29 18:58:12;;;;;;;6.63;6.03;;;;;;;;;;10344029;28;20074;-61
2023/08/29 19:03:10;;;;;;;8.82;6.45;;;;;;;;;;10348078;28;20075;-61
2023/08/29 19:08:09;;;;;;;7.55;5.25;;;;;;;;;;10342287;28;20083;-61
2023/08/29 19:13:07;;;;;;;7.95;5.38;;;;;;;;;;10346774;28;20063;-60
2023/08/29 19:18:08;;;;;;;6.72;4.88;;;;;;;;;;10343615;28;20064;-61
2023/08/29 19:23:07;;;;;;;10.88;5.70;;;;;;;;;;10342447;28;20520;-61
2023/08/29 19:28:05;;;;;;;7.07;5.80;;;;;;;;;;10351157;28;20076;-60
2023/08/29 19:33:04;;;;;;;13.07;5.95;;;;;;;;;;10345870;28;20067;-61
2023/08/29 19:38:04;;;;;;;8.27;5.07;;;;;;;;;;10344553;28;20068;-60
2023/08/29 19:43:04;;;;;;;6.30;5.22;;;;;;;;;;10347190;28;20064;-61
2023/08/29 19:48:02;;;;;;;6.90;5.15;;;;;;;;;;10347163;28;20072;-60
2023/08/29 19:53:00;;;;;;;7.70;6.15;;;;;;;;;;10339201;28;20371;-61
2023/08/29 19:58:00;;;;;;;8.15;6.05;;;;;;;;;;10337982;28;20072;-62
2023/08/29 20:03:00;;;;;;;7.65;5.47;;;;;;;;;;10335379;28;20075;-60
2023/08/29 20:07:58;;;;;;;8.02;5.43;;;;;;;;;;10338487;28;20071;-60
2023/08/29 20:13:01;;;;;;;5.95;4.78;;;;;;;;;;10339020;28;20060;-61
2023/08/29 20:17:59;;;;;;;7.43;5.78;;;;;;;;;;10349092;28;20500;-61
2023/08/29 20:22:57;;;;;;;8.85;5.38;;;;;;;;;;10334194;28;20068;-60
2023/08/29 20:27:55;;;;;;;11.73;4.80;;;;;;;;;;10336487;28;20080;-60
2023/08/29 20:32:55;;;;;;;7.20;4.85;;;;;;;;;;10336975;28;20066;-60
2023/08/29 20:37:56;;;;;;;9.45;5.93;;;;;;;;;;10343578;28;20469;-62
2023/08/29 20:42:54;;;;;;;7.93;4.90;;;;;;;;;;10337407;28;20067;-61
2023/08/29 20:47:54;;;;;;;7.18;4.93;;;;;;;;;;10341994;28;20496;-60
2023/08/29 20:52:54;;;;;;;5.05;4.57;;;;;;;;;;10338759;28;20076;-60
2023/08/29 20:57:52;;;;;;;7.78;5.28;;;;;;;;;;10336385;28;20067;-61
2023/08/29 21:02:51;;;;;;;8.48;5.53;;;;;;;;;;10338711;28;20078;-60
2023/08/29 21:07:49;;;;;;;13.65;5.05;;;;;;;;;;10342351;28;20074;-59
2023/08/29 21:12:50;;;;;;;8.10;5.25;;;;;;;;;;10341219;28;20454;-60
2023/08/29 21:17:48;;;;;;;9.27;4.82;;;;;;;;;;10340361;28;20079;-60
2023/08/29 21:22:47;;;;;;;9.43;4.25;;;;;;;;;;10342216;28;20063;-60
2023/08/29 21:27:45;;;;;;;12.05;5.00;;;;;;;;;;10341791;28;20178;-59
2023/08/29 21:32:45;;;;;;;9.77;4.72;;;;;;;;;;10333342;28;20072;-60
2023/08/29 21:37:43;;;;;;;8.13;5.13;;;;;;;;;;10342682;28;20055;-58
2023/08/29 21:42:44;;;;;;;6.32;4.50;;;;;;;;;;10338761;28;20075;-61
2023/08/29 21:47:42;;;;;;;6.38;4.72;;;;;;;;;;10319048;28;20080;-60
2023/08/29 21:52:42;;;;;;;10.07;4.85;;;;;;;;;;10340419;28;20071;-60
2023/08/29 21:57:40;;;;;;;8.35;5.30;;;;;;;;;;10337919;28;20098;-62
2023/08/29 22:02:38;;;;;;;6.75;4.72;;;;;;;;;;10337878;28;20071;-60
2023/08/29 22:07:38;;;;;;;8.05;5.05;;;;;;;;;;10336660;28;20071;-61
2023/08/29 22:12:37;;;;;;;9.63;4.82;;;;;;;;;;10341237;28;20078;-60
2023/08/29 22:17:35;;;;;;;8.70;4.63;;;;;;;;;;10338533;28;20082;-61
2023/08/29 22:22:35;;;;;;;5.70;4.55;;;;;;;;;;10343221;28;20080;-61
2023/08/29 22:27:33;;;;;;;7.95;4.65;;;;;;;;;;10345847;28;20079;-60
2023/08/29 22:32:32;;;;;;;6.95;5.10;;;;;;;;;;10337582;28;20466;-59
2023/08/29 22:37:31;;;;;;;8.85;5.35;;;;;;;;;;10349633;28;20071;-60
2023/08/29 22:42:29;;;;;;;9.65;4.60;;;;;;;;;;10345457;28;20079;-60
2023/08/29 22:47:27;;;;;;;8.75;4.90;;;;;;;;;;10345512;28;20080;-60
2023/08/29 22:52:27;;;;;;;6.07;4.32;;;;;;;;;;10345418;28;20088;-60
2023/08/29 22:57:25;;;;;;;11.88;4.97;;;;;;;;;;10345207;28;20079;-60
2023/08/29 23:02:24;;;;;;;6.00;4.68;;;;;;;;;;10343989;28;20083;-60
2023/08/29 23:07:23;;;;;;;12.82;4.47;;;;;;;;;;10344952;28;20071;-59
2023/08/29 23:12:23;;;;;;;5.03;4.60;;;;;;;;;;10344202;28;20074;-61
2023/08/29 23:17:21;;;;;;;6.63;4.10;;;;;;;;;;10344671;28;20075;-60
2023/08/29 23:22:19;;;;;;;7.18;4.10;;;;;;;;;;10346924;28;20087;-60
2023/08/29 23:27:18;;;;;;;6.55;4.43;;;;;;;;;;10346033;28;20091;-60
2023/08/29 23:32:18;;;;;;;5.72;4.45;;;;;;;;;;10342502;28;20083;-60
2023/08/29 23:37:16;;;;;;;7.07;4.45;;;;;;;;;;10343894;28;20074;-60
2023/08/29 23:42:15;;;;;;;4.88;4.28;;;;;;;;;;10341581;28;20080;-60
2023/08/29 23:47:13;;;;;;;8.40;4.50;;;;;;;;;;10344023;28;20076;-60
2023/08/29 23:52:13;;;;;;;7.80;4.68;;;;;;;;;;10342109;28;20088;-60
2023/08/29 23:57:11;;;;;;;10.25;4.78;;;;;;;;;;10343570;28;20071;-60
